-2.9°F
Current conditions from King Hill
Updated every 5 minutes
 
  Friday March 6, 2015

Station Historical Data
 
Daily Summary for March 06, 2015 Units:  English    Metric   Both
« Previous Day
Next Day »
Daily Weekly Monthly Yearly Custom
  Current: High: Low: Average:
Temperature: -2.9 °F 0.5 °F -3.6 °F -1.6 °F
Dew Point: -10.5 °F -8.3 °F -11.2 °F -9.7 °F
Humidity: 69% 71% 64% 68%
Wind Speed: 0.0mph 0.0mph 0.0mph 0mph
Wind Gust: 0.0mph 0.0mph - -
WindCalm - - North
Pressure: 30.39 in 30.40 in 30.36 in -
Precipitation: 0.00 in      
Historical Graphs
 
 
Tabular Data for March 06, 2015
Time Temperature Dew Point Pressure Wind Wind Speed Wind Gust Humidity Daily Rainfall
00:00 0.5 °F -8.5 °F 30.36 in Calm     65% 0.00 in
00:05 0.5 °F -8.8 °F 30.36 in Calm     64% 0.00 in
00:10 0.0 °F -9.0 °F 30.36 in Calm     65% 0.00 in
00:15 -0.4 °F -9.4 °F 30.36 in Calm     65% 0.00 in
00:20 -1.1 °F -9.7 °F 30.36 in Calm     66% 0.00 in
00:25 -1.3 °F -9.6 °F 30.37 in Calm     67% 0.00 in
00:30 -1.7 °F -10.0 °F 30.37 in Calm     67% 0.00 in
00:35 -1.8 °F -9.5 °F 30.37 in Calm     69% 0.00 in
00:40 -1.2 °F -8.3 °F 30.37 in Calm     71% 0.00 in
00:45 -0.8 °F -8.5 °F 30.37 in Calm     69% 0.00 in
00:50 -1.1 °F -9.1 °F 30.38 in Calm     68% 0.00 in
00:55 -1.4 °F -9.4 °F 30.38 in Calm     68% 0.00 in
01:00 -1.6 °F -9.6 °F 30.38 in Calm     68% 0.00 in
01:05 -1.7 °F -9.7 °F 30.38 in Calm     68% 0.00 in
01:10 -1.5 °F -9.5 °F 30.38 in Calm     68% 0.00 in
01:15 -1.5 °F -9.8 °F 30.39 in Calm     67% 0.00 in
01:20 -1.8 °F -10.1 °F 30.39 in Calm     67% 0.00 in
01:25 -1.8 °F -9.8 °F 30.39 in Calm     68% 0.00 in
01:30 -1.4 °F -9.7 °F 30.39 in Calm     67% 0.00 in
01:35 -1.2 °F -9.5 °F 30.39 in Calm     67% 0.00 in
01:40 -1.1 °F -9.4 °F 30.39 in Calm     67% 0.00 in
01:45 -1.4 °F -10.0 °F 30.40 in Calm     66% 0.00 in
01:50 -1.9 °F -10.5 °F 30.40 in Calm     66% 0.00 in
01:55 -2.7 °F -10.7 °F 30.40 in Calm     68% 0.00 in
02:00 -3.2 °F -10.8 °F 30.39 in Calm     69% 0.00 in
02:05 -3.6 °F -11.2 °F 30.39 in Calm     69% 0.00 in
02:10 -3.3 °F -10.6 °F 30.40 in Calm     70% 0.00 in
02:15 -3.1 °F -10.5 °F 30.39 in Calm     70% 0.00 in
02:20 -2.9 °F -10.5 °F 30.40 in Calm     69% 0.00 in
02:25 -2.9 °F -10.5 °F 30.39 in Calm     69% 0.00 in
Westford Weather
Compliments of Weather Underground

 
 
Current Radar Loop:

Copyright © WestfordWeather.net 2007-2015. All rights reserved.